createdAt,value
2018-11-22T02:55:37.170Z,14.3
2018-11-22T04:53:57.225Z,11.94
2018-11-22T05:17:37.253Z,13.85
2018-11-22T05:41:17.266Z,59.03
2018-11-22T08:03:17.327Z,24.19
2018-11-22T08:26:57.347Z,35.12
2018-11-22T08:44:42.349Z,23.75
2018-11-22T08:50:37.370Z,24.93
2018-11-22T08:56:32.351Z,32.36
2018-11-22T09:02:27.348Z,25.96
2018-11-22T09:08:22.355Z,21.51
2018-11-22T09:14:17.362Z,22.2
2018-11-22T09:20:12.371Z,19.43
2018-11-22T09:26:07.364Z,22.18
2018-11-22T09:32:02.383Z,24.72
2018-11-22T09:37:57.380Z,25.08
2018-11-22T09:43:52.375Z,28.19
2018-11-22T09:49:47.390Z,21.89
2018-11-22T09:55:42.380Z,17.22
2018-11-22T10:01:37.378Z,22.51
2018-11-22T10:07:32.378Z,23.17
2018-11-22T10:13:27.404Z,15.76
2018-11-22T10:19:22.383Z,13.59
2018-11-22T10:25:17.403Z,10.26
2018-11-22T10:31:12.419Z,12.82
2018-11-22T10:37:07.395Z,11.61
2018-11-22T10:48:57.449Z,18.21
2018-11-22T10:54:52.414Z,16
2018-11-22T11:00:47.421Z,13.03
2018-11-22T11:06:42.441Z,12.98
2018-11-22T11:12:37.444Z,15.22
2018-11-22T11:18:32.423Z,15.37
2018-11-22T11:24:27.881Z,16.08
2018-11-22T11:30:22.416Z,9.13
2018-11-22T11:36:17.790Z,7.31
2018-11-22T11:42:12.432Z,12.31
2018-11-22T11:48:07.438Z,12.24
2018-11-22T11:54:02.498Z,13.44
2018-11-22T11:59:57.475Z,12.85
2018-11-22T12:05:52.452Z,17.43
2018-11-22T12:11:47.474Z,15.94
2018-11-22T12:17:42.527Z,14.42
2018-11-22T12:23:37.474Z,11.86
2018-11-22T12:29:32.453Z,6.04
2018-11-22T12:35:27.468Z,7.57
2018-11-22T12:41:22.470Z,7.89
2018-11-22T12:47:17.538Z,10.24
2018-11-22T12:53:12.469Z,12.98
2018-11-22T12:59:07.468Z,12.77
2018-11-22T13:05:02.477Z,9.83
2018-11-22T13:10:57.541Z,10.08
2018-11-22T13:16:52.480Z,9.05
2018-11-22T13:22:47.500Z,9.37
2018-11-22T13:28:42.489Z,10.58
2018-11-22T13:34:37.473Z,10.6
2018-11-22T13:40:32.483Z,11.94
2018-11-22T13:46:27.525Z,13.51
2018-11-22T13:52:22.489Z,13.13
2018-11-22T13:58:17.503Z,11.41
2018-11-22T14:04:12.576Z,11.56
2018-11-22T14:10:07.547Z,10.45
2018-11-22T14:16:02.513Z,10.43
2018-11-22T14:21:57.521Z,14.23
2018-11-22T14:27:52.592Z,11.87
2018-11-22T14:33:47.529Z,12.49
2018-11-22T14:39:42.536Z,11.65
2018-11-22T14:45:37.561Z,12.8
2018-11-22T14:51:32.607Z,18.57
2018-11-22T14:57:27.633Z,18.63
2018-11-22T15:03:22.546Z,13.03
2018-11-22T15:09:17.548Z,11.26
2018-11-22T15:15:12.599Z,6.58
2018-11-22T15:21:07.545Z,8.8
2018-11-22T15:27:02.562Z,6.62
2018-11-22T15:32:57.611Z,7
2018-11-22T15:38:52.562Z,6.65
2018-11-22T15:44:47.576Z,12.35
2018-11-22T15:50:42.577Z,8.68
2018-11-22T15:56:37.564Z,15.59
2018-11-22T16:02:32.626Z,18.61
2018-11-22T16:08:27.578Z,18.94
2018-11-22T16:14:22.566Z,101.82
2018-11-22T16:20:17.578Z,172.68
2018-11-22T16:26:12.612Z,51.95
2018-11-22T16:32:07.592Z,23.58
2018-11-22T16:38:02.604Z,26.28
2018-11-22T16:44:03.113Z,20.02
2018-11-22T16:49:52.614Z,14.25
2018-11-22T16:55:47.597Z,21.15
2018-11-22T17:01:42.636Z,21.55
2018-11-22T17:07:37.592Z,24.58
2018-11-22T17:13:32.611Z,21.66
2018-11-22T17:19:27.609Z,15.42
2018-11-22T17:25:22.622Z,18.05
2018-11-22T17:31:17.625Z,17.2
2018-11-22T17:37:12.599Z,17.19
2018-11-22T17:43:07.625Z,13.57
2018-11-22T17:49:02.624Z,14.29
2018-11-22T17:54:57.632Z,13.93
2018-11-22T18:00:52.632Z,22.73
2018-11-22T18:06:47.640Z,19.7
2018-11-22T18:12:42.646Z,18.28
2018-11-22T18:18:37.745Z,25.33
2018-11-22T18:24:32.647Z,28.11
2018-11-22T18:30:27.668Z,31.67
2018-11-22T18:36:22.687Z,24.28
2018-11-22T18:42:17.659Z,33.29
2018-11-22T18:48:12.659Z,23.26
2018-11-22T18:54:07.674Z,32.69
2018-11-22T19:00:02.670Z,20.58
2018-11-22T19:05:57.663Z,13.31
2018-11-22T19:11:52.740Z,24.99
2018-11-22T19:17:47.694Z,24.93
2018-11-22T19:23:42.697Z,25.31
2018-11-22T19:29:37.689Z,23.76
2018-11-22T19:35:32.689Z,14.87
2018-11-22T19:41:27.713Z,19.75
2018-11-22T19:47:22.683Z,21.82
2018-11-22T19:53:17.690Z,71.83
2018-11-22T19:59:12.706Z,55.05
2018-11-22T20:05:07.724Z,60.06
2018-11-22T20:11:02.713Z,44.23
2018-11-22T20:16:57.699Z,32.12
2018-11-22T20:22:52.708Z,36.91
2018-11-22T20:28:47.827Z,42.05
2018-11-22T20:34:42.711Z,30.08
2018-11-22T20:40:37.751Z,23.14
2018-11-22T20:46:32.722Z,18.35
2018-11-22T20:52:27.780Z,15.07
2018-11-22T20:58:22.717Z,14.27
2018-11-22T21:04:17.726Z,23.98
2018-11-22T21:10:12.723Z,28.51
2018-11-22T21:16:07.748Z,28.62
2018-11-22T21:22:02.736Z,32.08
2018-11-22T21:27:57.775Z,35.73
2018-11-22T21:33:52.771Z,30.12
2018-11-22T21:39:47.790Z,33.9
2018-11-22T21:45:42.763Z,45.67
2018-11-22T21:51:39.436Z,52.97
2018-11-22T21:57:32.746Z,32.76
2018-11-22T22:03:27.764Z,22.94
2018-11-22T22:09:22.768Z,17.67
2018-11-22T22:15:17.790Z,22.2
2018-11-22T22:21:12.785Z,20.32
2018-11-22T22:27:07.784Z,23.28
2018-11-22T22:33:02.780Z,21.83
2018-11-22T22:38:57.772Z,24.1
2018-11-22T22:44:52.794Z,31.2
2018-11-22T22:50:47.780Z,24.37
2018-11-22T22:56:42.795Z,23.02
2018-11-22T23:02:37.852Z,23.31
2018-11-22T23:08:32.784Z,18.95
2018-11-22T23:14:27.807Z,19.44
2018-11-22T23:20:22.836Z,19.5
2018-11-22T23:26:17.818Z,21.69
2018-11-22T23:32:12.834Z,25.85
2018-11-22T23:38:07.823Z,21.97
2018-11-22T23:44:02.804Z,16.7
2018-11-22T23:49:57.831Z,15.61
2018-11-22T23:55:52.836Z,15.2
